Time;durP1;ratioP1;P1;durP2;ratioP2;P2;SDS_P1;SDS_P2;PMS_P1;PMS_P2;Temp;Humidity;BMP_temperature;BMP_pressure;BME280_temperature;BME280_humidity;BME280_pressure;Samples;Min_cycle;Max_cycle;Signal;HPM_P1;HPM_P2
2023/12/30 00:01:32;;;;;;;6.40;4.17;;;10.20;99.90;;;;;;10387472;28;20873;-86
2023/12/30 00:06:35;;;;;;;7.33;5.03;;;10.00;99.90;;;;;;10407242;28;20691;-85
2023/12/30 00:11:38;;;;;;;8.00;4.60;;;9.80;99.90;;;;;;10402011;28;20774;-85
2023/12/30 00:16:41;;;;;;;11.53;5.77;;;9.60;99.90;;;;;;10407980;28;20230;-85
2023/12/30 00:21:44;;;;;;;9.07;5.00;;;9.50;99.90;;;;;;10406556;28;20262;-84
2023/12/30 00:26:46;;;;;;;8.20;4.93;;;9.50;99.90;;;;;;10406866;28;20227;-85
2023/12/30 00:31:49;;;;;;;9.73;5.60;;;9.40;99.90;;;;;;10410147;28;20244;-87
2023/12/30 00:36:52;;;;;;;15.10;6.67;;;9.40;99.90;;;;;;10408738;28;20232;-83
2023/12/30 00:41:55;;;;;;;16.83;8.27;;;9.30;99.90;;;;;;10394104;28;20257;-86
2023/12/30 00:46:57;;;;;;;12.13;7.33;;;9.10;99.90;;;;;;10397263;28;20228;-83
2023/12/30 00:52:00;;;;;;;10.30;5.53;;;9.10;99.90;;;;;;10395165;28;20394;-84
2023/12/30 00:57:03;;;;;;;7.97;3.70;;;9.10;99.90;;;;;;10410153;28;20233;-85
2023/12/30 01:02:05;;;;;;;6.77;3.57;;;9.20;99.90;;;;;;10390590;28;20625;-84
2023/12/30 01:07:07;;;;;;;7.27;4.10;;;9.40;99.90;;;;;;10393408;28;20312;-85
2023/12/30 01:12:13;;;;;;;3.93;2.57;;;9.60;99.90;;;;;;10403301;28;20247;-84
2023/12/30 01:17:16;;;;;;;5.07;3.27;;;9.50;99.90;;;;;;10409973;28;20307;-84
2023/12/30 01:22:18;;;;;;;5.57;3.17;;;9.70;99.90;;;;;;10392006;28;20236;-84
2023/12/30 01:27:21;;;;;;;5.57;2.60;;;9.50;99.90;;;;;;10392353;28;20239;-84
2023/12/30 01:32:24;;;;;;;5.17;3.03;;;9.60;99.90;;;;;;10376060;28;20251;-84
2023/12/30 01:37:26;;;;;;;4.63;2.90;;;9.60;99.90;;;;;;10391196;28;20227;-84
2023/12/30 01:42:29;;;;;;;3.17;2.07;;;9.50;99.90;;;;;;10408976;28;20691;-84
2023/12/30 01:47:31;;;;;;;4.07;3.00;;;9.40;99.90;;;;;;10408463;28;20259;-84
2023/12/30 01:52:35;;;;;;;4.60;2.80;;;9.80;99.90;;;;;;10392971;28;20642;-84
2023/12/30 01:57:38;;;;;;;3.63;2.23;;;10.10;99.90;;;;;;10351946;28;20227;-84
2023/12/30 02:02:41;;;;;;;3.13;2.13;;;9.90;99.90;;;;;;10388066;28;20700;-85
2023/12/30 02:07:45;;;;;;;2.13;1.53;;;10.20;99.90;;;;;;10406914;28;20239;-85
2023/12/30 02:12:48;;;;;;;4.07;2.03;;;10.40;99.90;;;;;;10393466;28;20716;-85
2023/12/30 02:17:54;;;;;;;4.40;1.77;;;10.70;99.90;;;;;;10391001;28;20199;-85
2023/12/30 02:22:57;;;;;;;3.37;1.97;;;10.90;99.90;;;;;;10389962;28;20200;-86
2023/12/30 02:28:00;;;;;;;3.60;2.33;;;11.40;99.90;;;;;;10404929;28;20265;-85
2023/12/30 02:33:02;;;;;;;5.27;1.83;;;12.10;99.90;;;;;;10407690;28;20264;-84
2023/12/30 02:38:06;;;;;;;3.20;2.67;;;12.70;99.90;;;;;;10407328;28;20226;-85
2023/12/30 02:43:08;;;;;;;4.53;2.30;;;13.40;99.90;;;;;;10393366;28;20231;-85
2023/12/30 02:48:11;;;;;;;3.30;1.53;;;13.80;99.90;;;;;;10431400;28;20258;-86
2023/12/30 02:53:14;;;;;;;5.37;2.20;;;13.80;99.90;;;;;;10408917;28;20258;-86
2023/12/30 02:58:16;;;;;;;3.00;1.73;;;13.90;99.90;;;;;;10415794;28;20766;-85
2023/12/30 03:03:21;;;;;;;5.77;2.30;;;13.80;99.90;;;;;;10449618;28;20234;-86
2023/12/30 03:08:23;;;;;;;2.50;1.57;;;13.60;99.90;;;;;;10406101;28;20584;-86
2023/12/30 03:13:25;;;;;;;2.10;1.17;;;13.50;99.90;;;;;;10390012;28;20265;-86
2023/12/30 03:18:28;;;;;;;3.47;2.20;;;13.40;99.90;;;;;;10408434;28;20292;-85
2023/12/30 03:23:31;;;;;;;1.53;1.43;;;13.30;99.90;;;;;;10391918;28;20764;-86
2023/12/30 03:28:34;;;;;;;1.97;1.10;;;13.40;99.90;;;;;;10397427;28;20247;-85
2023/12/30 03:33:36;;;;;;;2.23;1.37;;;13.40;99.90;;;;;;10397064;28;20672;-86
2023/12/30 03:38:39;;;;;;;1.87;1.43;;;13.60;99.90;;;;;;10418257;28;20207;-86
2023/12/30 03:43:42;;;;;;;2.03;1.53;;;13.40;99.90;;;;;;10438688;28;20225;-86
2023/12/30 03:48:45;;;;;;;1.30;0.70;;;13.30;99.90;;;;;;10421739;28;20608;-86
2023/12/30 03:53:48;;;;;;;2.27;1.53;;;13.00;99.90;;;;;;10456141;28;20312;-86
2023/12/30 03:58:51;;;;;;;2.17;1.17;;;13.40;99.90;;;;;;10437948;28;20336;-85
2023/12/30 04:03:53;;;;;;;3.23;1.70;;;13.00;99.90;;;;;;10435042;28;20225;-86
2023/12/30 04:08:56;;;;;;;2.97;1.57;;;12.80;99.90;;;;;;10360242;28;20261;-86
2023/12/30 04:13:59;;;;;;;1.60;0.97;;;12.80;99.90;;;;;;10380372;28;20705;-85
2023/12/30 04:19:01;;;;;;;2.03;1.50;;;12.80;99.90;;;;;;10417541;28;20200;-85
2023/12/30 04:24:04;;;;;;;2.47;1.10;;;12.60;99.90;;;;;;10413645;28;20289;-86
2023/12/30 04:29:07;;;;;;;0.77;0.57;;;12.60;99.90;;;;;;10395629;28;20245;-85
2023/12/30 04:34:10;;;;;;;3.13;1.47;;;12.90;99.90;;;;;;10413026;28;20247;-86
2023/12/30 04:39:12;;;;;;;1.40;0.80;;;13.00;99.90;;;;;;10406206;28;20636;-85
2023/12/30 04:44:15;;;;;;;2.13;0.97;;;12.90;99.90;;;;;;10424251;28;20231;-85
2023/12/30 04:49:17;;;;;;;1.10;0.80;;;12.90;99.90;;;;;;10435940;28;20239;-85
2023/12/30 04:54:20;;;;;;;3.63;1.40;;;13.00;99.90;;;;;;10435065;28;20830;-85
2023/12/30 04:59:23;;;;;;;2.03;0.87;;;12.80;99.90;;;;;;10428884;28;20231;-85
2023/12/30 05:04:25;;;;;;;1.33;0.87;;;12.80;99.90;;;;;;10394995;28;20662;-85
2023/12/30 05:09:28;;;;;;;4.10;1.13;;;13.10;99.90;;;;;;10393654;28;20235;-85
2023/12/30 05:14:30;;;;;;;1.23;1.00;;;13.10;99.90;;;;;;10411521;28;20650;-85
2023/12/30 05:19:33;;;;;;;1.70;1.10;;;13.00;99.90;;;;;;10393470;28;20285;-84
2023/12/30 05:24:36;;;;;;;1.40;0.90;;;13.00;99.90;;;;;;10410968;28;20265;-84
2023/12/30 05:29:39;;;;;;;2.03;1.13;;;12.80;99.90;;;;;;10410814;28;20289;-85
2023/12/30 05:34:42;;;;;;;1.60;1.00;;;12.70;99.90;;;;;;10392144;28;20653;-84
2023/12/30 05:39:44;;;;;;;1.57;1.10;;;12.30;99.90;;;;;;10410088;28;20231;-84
2023/12/30 05:44:50;;;;;;;3.20;1.13;;;12.40;99.90;;;;;;10445649;28;20226;-84
2023/12/30 05:49:52;;;;;;;4.83;1.50;;;12.00;99.90;;;;;;10433371;28;20266;-84
2023/12/30 05:54:55;;;;;;;1.83;1.20;;;11.40;99.90;;;;;;10450986;28;20307;-84
2023/12/30 05:59:57;;;;;;;1.80;1.47;;;11.50;99.90;;;;;;10423683;28;20222;-84
2023/12/30 06:05:00;;;;;;;2.13;1.30;;;11.00;99.90;;;;;;10409722;28;20232;-84
2023/12/30 06:10:02;;;;;;;1.73;0.90;;;11.40;99.90;;;;;;10409328;28;20247;-85
2023/12/30 06:15:06;;;;;;;2.53;1.10;;;12.50;99.90;;;;;;10391025;28;20234;-84
2023/12/30 06:20:10;;;;;;;1.70;1.17;;;13.00;99.90;;;;;;10409008;28;20196;-84
2023/12/30 06:25:13;;;;;;;1.30;0.90;;;13.10;99.90;;;;;;10350462;28;20243;-85
2023/12/30 06:30:15;;;;;;;1.63;1.00;;;13.00;99.90;;;;;;10367230;28;20228;-84
2023/12/30 06:35:18;;;;;;;1.63;1.03;;;12.60;99.90;;;;;;10367171;28;20688;-85
2023/12/30 06:40:20;;;;;;;1.00;0.50;;;12.60;99.90;;;;;;10371848;28;20231;-85
2023/12/30 06:45:23;;;;;;;1.77;1.20;;;12.90;99.90;;;;;;10390120;28;20234;-85
2023/12/30 06:50:26;;;;;;;1.37;0.73;;;13.20;99.90;;;;;;10408009;28;20310;-85
2023/12/30 06:55:28;;;;;;;1.73;0.90;;;13.20;99.90;;;;;;10445496;28;20315;-85
2023/12/30 07:00:43;;;;;;;2.70;1.07;;;13.00;99.90;;;;;;10442141;28;20253;-84
2023/12/30 07:05:45;;;;;;;1.87;0.97;;;13.00;99.90;;;;;;10396788;28;20238;-84
2023/12/30 07:10:48;;;;;;;1.23;0.80;;;13.10;99.90;;;;;;10391865;28;20947;-84
2023/12/30 07:15:50;;;;;;;2.33;0.70;;;13.30;99.90;;;;;;10431535;28;20276;-84
2023/12/30 07:20:53;;;;;;;2.97;0.90;;;12.70;99.90;;;;;;10442014;28;20285;-84
2023/12/30 07:25:56;;;;;;;2.03;0.90;;;12.30;99.90;;;;;;10444756;28;20235;-84
2023/12/30 07:30:59;;;;;;;1.83;1.00;;;12.40;99.90;;;;;;10455670;28;20669;-84
2023/12/30 07:36:04;;;;;;;2.00;1.03;;;12.00;99.90;;;;;;10456110;28;20227;-85
2023/12/30 07:41:06;;;;;;;1.37;0.67;;;12.40;99.90;;;;;;10413324;28;20231;-86
2023/12/30 07:46:09;;;;;;;1.10;0.93;;;12.70;99.90;;;;;;10415693;28;20227;-84
2023/12/30 07:51:11;;;;;;;1.33;0.70;;;12.40;99.90;;;;;;10415206;28;20297;-85
2023/12/30 07:56:14;;;;;;;1.47;0.60;;;12.40;99.90;;;;;;10382778;28;20297;-85
2023/12/30 08:01:18;;;;;;;1.13;0.67;;;12.60;99.90;;;;;;10343190;28;20223;-85
2023/12/30 08:06:20;;;;;;;0.93;0.83;;;12.80;99.90;;;;;;10372310;28;20619;-85
2023/12/30 08:11:23;;;;;;;1.00;0.57;;;12.80;99.90;;;;;;10355082;28;20702;-85
2023/12/30 08:16:25;;;;;;;0.53;0.40;;;12.80;99.90;;;;;;10372746;28;20228;-84
2023/12/30 08:21:28;;;;;;;1.53;0.80;;;13.10;99.90;;;;;;10355426;28;20292;-84
2023/12/30 08:26:31;;;;;;;0.93;0.80;;;13.10;99.90;;;;;;10405271;28;20273;-85
2023/12/30 08:31:34;;;;;;;0.67;0.43;;;13.30;99.90;;;;;;10434406;28;20281;-85
2023/12/30 08:36:37;;;;;;;1.80;0.83;;;13.30;99.90;;;;;;10453691;28;20226;-85
2023/12/30 08:41:40;;;;;;;1.33;0.93;;;13.20;99.90;;;;;;10432129;28;20236;-86
2023/12/30 08:46:44;;;;;;;1.00;0.60;;;13.20;99.90;;;;;;10370141;28;20259;-85
2023/12/30 08:51:46;;;;;;;1.17;0.73;;;13.20;99.90;;;;;;10379949;28;20315;-85
2023/12/30 08:56:50;;;;;;;0.77;0.53;;;13.20;99.90;;;;;;10435448;28;20251;-85
2023/12/30 09:01:53;;;;;;;0.83;0.50;;;13.10;99.90;;;;;;10352755;28;20208;-86
2023/12/30 09:06:56;;;;;;;3.07;0.57;;;13.10;99.90;;;;;;10373867;28;20633;-85
2023/12/30 09:11:58;;;;;;;1.90;0.87;;;13.20;99.90;;;;;;10428004;28;20773;-85
2023/12/30 09:17:01;;;;;;;1.03;0.80;;;13.10;99.90;;;;;;10436021;28;20245;-85
2023/12/30 09:22:03;;;;;;;1.63;0.60;;;12.50;99.90;;;;;;10433594;28;20239;-84
2023/12/30 09:27:07;;;;;;;1.53;1.13;;;12.60;99.90;;;;;;10434087;28;20652;-86
2023/12/30 09:32:11;;;;;;;0.97;0.80;;;12.80;99.90;;;;;;10407473;28;20240;-87
2023/12/30 09:37:14;;;;;;;1.47;0.90;;;12.90;99.90;;;;;;10375696;28;20292;-85
2023/12/30 09:42:17;;;;;;;1.50;0.73;;;11.80;99.90;;;;;;10412056;28;20246;-86
2023/12/30 09:47:21;;;;;;;0.80;0.80;;;11.60;99.90;;;;;;10390855;28;20276;-84
2023/12/30 09:52:23;;;;;;;2.57;0.83;;;11.60;99.90;;;;;;10373501;28;20668;-84
2023/12/30 09:57:27;;;;;;;6.87;1.47;;;11.80;99.90;;;;;;10367570;28;20281;-84
2023/12/30 10:02:30;;;;;;;16.03;1.93;;;12.00;99.90;;;;;;10409183;28;20247;-85
2023/12/30 10:07:34;;;;;;;8.27;2.00;;;11.30;99.90;;;;;;10405070;28;20307;-84
2023/12/30 10:12:36;;;;;;;2.90;1.30;;;11.30;99.90;;;;;;10426347;28;20262;-85
2023/12/30 10:17:40;;;;;;;7.50;2.03;;;11.20;99.90;;;;;;10384954;28;20232;-85
2023/12/30 10:22:43;;;;;;;3.03;1.10;;;9.80;99.90;;;;;;10042832;28;9999720;-86
2023/12/30 10:27:49;;;;;;;2.87;1.40;;;9.60;99.90;;;;;;10407991;28;20244;-86
2023/12/30 10:32:51;;;;;;;3.37;1.70;;;9.60;99.90;;;;;;10385690;28;20282;-85
2023/12/30 10:37:54;;;;;;;7.80;3.40;;;10.50;99.90;;;;;;10373670;28;20989;-89
2023/12/30 10:42:57;;;;;;;3.63;1.87;;;10.00;99.90;;;;;;10386097;28;20259;-81
2023/12/30 10:48:00;;;;;;;1.10;0.80;;;9.80;99.90;;;;;;10405587;22;20275;-86
2023/12/30 10:53:18;;;;;;;1.63;0.23;;;11.10;99.90;;;;;;10404049;28;20277;-86
2023/12/30 10:58:24;;;;;;;2.37;1.10;;;12.10;99.90;;;;;;10404038;28;20235;-85
2023/12/30 11:03:29;;;;;;;1.03;0.40;;;12.60;99.90;;;;;;10387860;28;20627;-86
2023/12/30 11:08:32;;;;;;;2.47;0.70;;;12.80;99.90;;;;;;10404408;28;20239;-85
2023/12/30 11:13:41;;;;;;;1.17;0.80;;;12.80;99.90;;;;;;10386810;28;20551;-86
2023/12/30 11:18:53;;;;;;;0.97;0.50;;;12.80;99.90;;;;;;10403428;28;20238;-86
2023/12/30 11:24:01;;;;;;;2.27;0.57;;;12.70;99.90;;;;;;10386324;28;20243;-86
2023/12/30 11:29:04;;;;;;;0.60;0.50;;;13.30;99.90;;;;;;10386455;28;20231;-86
2023/12/30 11:34:07;;;;;;;2.77;0.70;;;13.30;99.90;;;;;;10403339;28;20270;-86
2023/12/30 11:39:12;;;;;;;5.27;1.57;;;13.50;99.90;;;;;;10385937;28;20289;-86
2023/12/30 11:44:16;;;;;;;5.70;1.43;;;13.50;99.90;;;;;;10405268;28;20305;-89
2023/12/30 11:49:19;;;;;;;2.40;1.00;;;13.50;99.90;;;;;;10407344;28;20704;-89
2023/12/30 11:54:22;;;;;;;4.73;1.23;;;13.20;99.90;;;;;;10374385;28;20262;-90
2023/12/30 11:59:25;;;;;;;5.67;1.93;;;13.20;99.90;;;;;;10409720;28;20622;-90
2023/12/30 12:04:29;;;;;;;2.07;0.70;;;13.20;99.90;;;;;;10396230;28;20235;-89
2023/12/30 12:09:31;;;;;;;3.63;1.30;;;13.30;99.90;;;;;;10407270;28;20643;-90
2023/12/30 12:14:34;;;;;;;1.03;0.93;;;13.30;99.90;;;;;;10390272;28;20252;-90
2023/12/30 12:19:37;;;;;;;2.77;1.20;;;13.10;99.90;;;;;;10371679;28;20701;-89
2023/12/30 12:24:41;;;;;;;3.43;1.23;;;13.40;99.90;;;;;;10359382;28;20235;-88
2023/12/30 12:29:46;;;;;;;3.10;0.80;;;13.40;99.90;;;;;;10374954;28;20670;-89
2023/12/30 12:34:50;;;;;;;0.83;0.70;;;13.60;99.90;;;;;;10407098;28;20304;-89
2023/12/30 12:39:53;;;;;;;4.03;0.93;;;13.40;99.90;;;;;;10403039;28;20238;-89
2023/12/30 12:44:56;;;;;;;6.23;1.03;;;13.50;99.90;;;;;;10392429;28;20664;-89
2023/12/30 12:49:58;;;;;;;2.50;1.10;;;13.50;99.90;;;;;;10366676;28;20636;-89
2023/12/30 12:55:02;;;;;;;3.20;1.43;;;13.80;99.90;;;;;;10379045;28;20259;-90
2023/12/30 13:00:08;;;;;;;3.20;1.27;;;13.60;99.90;;;;;;10379717;28;20790;-89
2023/12/30 13:05:11;;;;;;;6.23;2.20;;;13.80;99.90;;;;;;10402342;28;20288;-89
2023/12/30 13:15:34;;;;;;;4.50;1.63;;;13.60;99.90;;;;;;10374847;28;20667;-91
2023/12/30 13:20:38;;;;;;;6.27;1.87;;;13.40;99.90;;;;;;10410301;28;20235;-91
2023/12/30 13:25:43;;;;;;;3.33;1.43;;;13.20;99.90;;;;;;10405899;28;20259;-91
2023/12/30 13:30:47;;;;;;;1.70;1.27;;;13.20;99.90;;;;;;10388209;28;20235;-91
2023/12/30 13:35:50;;;;;;;3.63;1.63;;;13.40;99.90;;;;;;10374846;28;20321;-91
2023/12/30 13:40:59;;;;;;;7.73;3.00;;;13.30;99.90;;;;;;10350671;28;20310;-91
2023/12/30 13:46:36;;;;;;;4.07;2.37;;;12.50;99.90;;;;;;10380717;28;20743;-91
2023/12/30 13:51:38;;;;;;;7.53;2.90;;;11.10;99.90;;;;;;10394461;28;20247;-92
2023/12/30 13:56:42;;;;;;;6.43;2.83;;;9.80;99.90;;;;;;10388168;28;20275;-90
2023/12/30 14:01:45;;;;;;;7.07;3.23;;;9.80;99.90;;;;;;10384720;28;20220;-91
2023/12/30 14:06:48;;;;;;;6.03;2.70;;;8.60;99.90;;;;;;10366854;28;20289;-85
2023/12/30 14:11:57;;;;;;;4.03;2.40;;;9.60;99.90;;;;;;10367363;28;20234;-81
2023/12/30 14:17:00;;;;;;;8.33;3.17;;;10.60;99.90;;;;;;10378126;28;20227;-86
2023/12/30 14:22:05;;;;;;;4.80;3.17;;;10.10;99.90;;;;;;10400741;28;20230;-88
2023/12/30 14:27:08;;;;;;;25.37;10.17;;;9.00;99.90;;;;;;10378590;28;20195;-88
2023/12/30 14:32:11;;;;;;;32.27;11.17;;;9.40;99.90;;;;;;10430570;28;20206;-86
2023/12/30 14:37:14;;;;;;;45.70;14.63;;;8.80;99.90;;;;;;10370051;28;20235;-87
2023/12/30 14:42:17;;;;;;;37.83;13.77;;;9.10;99.90;;;;;;10394940;28;20614;-87
2023/12/30 14:47:19;;;;;;;35.60;13.07;;;10.20;99.90;;;;;;10411095;28;20308;-85
2023/12/30 14:52:22;;;;;;;50.40;16.17;;;11.10;99.90;;;;;;10432672;28;20258;-85
2023/12/30 14:57:25;;;;;;;52.87;13.77;;;11.60;99.90;;;;;;10373234;28;20228;-86
2023/12/30 15:02:28;;;;;;;26.70;7.53;;;12.00;99.90;;;;;;10396350;28;20243;-86
2023/12/30 15:07:30;;;;;;;34.80;9.80;;;11.70;99.90;;;;;;10385441;28;20242;-86
2023/12/30 15:12:33;;;;;;;31.40;12.33;;;12.10;99.90;;;;;;10443136;28;20631;-85
2023/12/30 15:17:35;;;;;;;43.40;12.53;;;12.40;99.90;;;;;;10364693;28;20631;-86
2023/12/30 15:22:39;;;;;;;34.27;10.03;;;12.50;99.90;;;;;;10382206;28;20290;-86
2023/12/30 15:27:43;;;;;;;36.83;11.07;;;12.40;99.90;;;;;;10427017;28;20253;-86
2023/12/30 15:32:46;;;;;;;31.20;10.73;;;12.80;99.90;;;;;;10066276;28;10000172;-86
2023/12/30 15:37:49;;;;;;;36.27;11.70;;;12.70;99.90;;;;;;10392418;28;20346;-86
2023/12/30 15:42:52;;;;;;;35.47;11.77;;;12.80;99.90;;;;;;10392949;28;20235;-86
2023/12/30 15:47:55;;;;;;;25.33;9.37;;;12.80;99.90;;;;;;10410969;28;20289;-87
2023/12/30 15:52:58;;;;;;;36.77;10.40;;;12.40;99.90;;;;;;10383940;28;20309;-87
2023/12/30 15:58:00;;;;;;;32.53;11.63;;;12.40;99.90;;;;;;10372963;28;20708;-87
2023/12/30 16:03:03;;;;;;;30.07;10.13;;;12.40;99.90;;;;;;10362566;28;20315;-87
2023/12/30 16:08:09;;;;;;;25.00;10.03;;;12.00;99.90;;;;;;10405619;28;20245;-87
2023/12/30 16:13:13;;;;;;;20.00;7.30;;;12.10;99.90;;;;;;10375319;28;20243;-87
2023/12/30 16:18:16;;;;;;;20.23;9.20;;;11.90;99.90;;;;;;10414137;28;20230;-87
2023/12/30 16:23:19;;;;;;;35.37;12.10;;;11.50;99.90;;;;;;10425264;28;20288;-87
2023/12/30 16:28:22;;;;;;;26.20;10.57;;;11.20;99.90;;;;;;10409868;28;20238;-87
2023/12/30 16:33:24;;;;;;;19.37;8.77;;;10.90;99.90;;;;;;10382269;28;20278;-87
2023/12/30 16:38:27;;;;;;;30.70;9.37;;;10.40;99.90;;;;;;10048603;28;9999801;-87
2023/12/30 16:43:33;;;;;;;28.67;11.07;;;10.10;99.90;;;;;;10385407;28;20285;-87
2023/12/30 16:48:36;;;;;;;19.03;8.80;;;10.10;99.90;;;;;;10402333;28;20255;-87
2023/12/30 16:53:41;;;;;;;26.70;10.27;;;9.70;99.90;;;;;;10379847;28;20226;-87
2023/12/30 16:58:44;;;;;;;21.20;6.37;;;9.90;99.90;;;;;;10396966;28;20235;-88
2023/12/30 17:03:49;;;;;;;19.73;7.17;;;10.60;99.90;;;;;;10389327;28;20246;-87
2023/12/30 17:09:00;;;;;;;23.67;9.47;;;11.60;99.90;;;;;;10365546;28;20263;-87
2023/12/30 17:14:02;;;;;;;27.80;9.13;;;11.80;99.90;;;;;;10034485;28;10000350;-87
2023/12/30 17:19:05;;;;;;;17.43;7.73;;;11.30;99.90;;;;;;10365853;28;20224;-87
2023/12/30 17:24:07;;;;;;;24.30;9.87;;;11.00;99.90;;;;;;10365590;28;20290;-87
2023/12/30 17:29:10;;;;;;;21.60;8.67;;;10.70;99.90;;;;;;10350023;28;20296;-87
2023/12/30 17:34:12;;;;;;;31.40;10.87;;;11.40;99.90;;;;;;10392227;28;20322;-87
2023/12/30 17:39:15;;;;;;;21.80;9.20;;;11.10;99.90;;;;;;10372982;28;20288;-87
2023/12/30 17:44:18;;;;;;;21.03;9.30;;;11.00;99.90;;;;;;10408879;28;20956;-87
2023/12/30 17:49:21;;;;;;;21.30;7.93;;;11.60;99.90;;;;;;10370161;28;20267;-88
2023/12/30 17:54:23;;;;;;;23.23;9.17;;;11.90;99.90;;;;;;10384392;28;20255;-88
2023/12/30 17:59:26;;;;;;;22.50;7.60;;;12.00;99.90;;;;;;10385064;28;20306;-88
2023/12/30 18:04:28;;;;;;;12.83;6.17;;;12.10;99.90;;;;;;10394489;28;20706;-87
2023/12/30 18:09:31;;;;;;;16.00;8.10;;;12.20;99.90;;;;;;10383922;28;20295;-88
2023/12/30 18:14:34;;;;;;;14.63;6.97;;;12.40;99.90;;;;;;10366880;28;20313;-88
2023/12/30 18:19:37;;;;;;;29.27;10.80;;;12.50;99.90;;;;;;10388907;28;20277;-89
2023/12/30 18:24:40;;;;;;;20.57;9.03;;;12.40;99.90;;;;;;10375920;28;20309;-87
2023/12/30 18:29:45;;;;;;;24.30;9.33;;;12.30;99.90;;;;;;10403998;28;20232;-88
2023/12/30 18:34:47;;;;;;;22.57;9.07;;;12.20;99.90;;;;;;10371347;28;20774;-87
2023/12/30 18:39:50;;;;;;;23.97;9.07;;;12.40;99.90;;;;;;10045009;28;10000578;-87
2023/12/30 18:44:52;;;;;;;26.77;9.77;;;12.50;99.90;;;;;;10345889;28;20763;-87
2023/12/30 18:49:57;;;;;;;21.40;8.10;;;12.10;99.90;;;;;;10367679;28;20267;-87
2023/12/30 18:55:00;;;;;;;18.30;6.20;;;11.90;99.90;;;;;;10385654;28;20770;-87
2023/12/30 19:00:04;;;;;;;19.30;8.67;;;11.90;99.90;;;;;;10388650;28;20650;-87
2023/12/30 19:05:10;;;;;;;17.50;6.77;;;11.80;99.90;;;;;;10393457;28;20982;-87
2023/12/30 19:10:12;;;;;;;21.13;7.00;;;12.00;99.90;;;;;;10422000;28;20612;-86
2023/12/30 19:15:15;;;;;;;22.63;7.40;;;12.00;99.90;;;;;;10452018;28;20883;-86
2023/12/30 19:20:18;;;;;;;19.07;8.07;;;11.80;99.90;;;;;;10435752;28;20253;-87
2023/12/30 19:25:20;;;;;;;22.73;7.33;;;11.50;99.90;;;;;;10354094;28;20350;-87
2023/12/30 19:30:23;;;;;;;16.30;7.47;;;11.60;99.90;;;;;;10409423;28;20264;-88
2023/12/30 19:35:25;;;;;;;17.27;7.47;;;11.00;99.90;;;;;;10449962;28;20319;-87
2023/12/30 19:40:28;;;;;;;25.17;8.37;;;10.70;99.90;;;;;;9384735;28;9999989;-88
2023/12/30 19:45:31;;;;;;;18.33;7.50;;;10.80;99.90;;;;;;10411876;28;20683;-87
2023/12/30 19:50:34;;;;;;;15.83;7.13;;;10.70;99.90;;;;;;10384041;28;20324;-87
2023/12/30 19:55:36;;;;;;;15.40;7.93;;;10.70;99.90;;;;;;10396352;28;20274;-87
2023/12/30 20:00:39;;;;;;;20.43;6.93;;;10.90;99.90;;;;;;10412282;28;20261;-88
2023/12/30 20:05:41;;;;;;;15.87;7.60;;;11.10;99.90;;;;;;10415951;28;20238;-88
2023/12/30 20:10:46;;;;;;;11.20;6.73;;;11.00;99.90;;;;;;10407980;28;20239;-87
2023/12/30 20:15:49;;;;;;;13.87;6.70;;;11.10;99.90;;;;;;10396796;28;20305;-88
2023/12/30 20:20:51;;;;;;;13.83;5.30;;;10.80;99.90;;;;;;10061417;28;10000280;-87
2023/12/30 20:25:54;;;;;;;14.50;6.83;;;11.00;99.90;;;;;;10031767;28;10000127;-88
2023/12/30 20:30:57;;;;;;;18.80;7.30;;;11.10;99.90;;;;;;10364963;28;20231;-88
2023/12/30 20:36:00;;;;;;;21.93;7.90;;;11.30;99.90;;;;;;10425142;28;20301;-88
2023/12/30 20:41:03;;;;;;;15.90;7.40;;;11.60;99.90;;;;;;10403252;28;20231;-88
2023/12/30 20:46:09;;;;;;;14.63;8.00;;;11.70;99.90;;;;;;10452409;28;20902;-88
2023/12/30 20:51:12;;;;;;;15.93;6.77;;;11.20;99.90;;;;;;10433155;28;20238;-88
2023/12/30 20:56:15;;;;;;;17.50;7.67;;;11.30;99.90;;;;;;10394677;28;20861;-88
2023/12/30 21:01:17;;;;;;;17.37;6.73;;;10.90;99.90;;;;;;10413318;28;20228;-88
2023/12/30 21:06:20;;;;;;;13.37;6.43;;;10.50;99.90;;;;;;10435602;28;20231;-88
2023/12/30 21:11:22;;;;;;;11.93;6.23;;;10.20;99.90;;;;;;10390604;28;20671;-88
2023/12/30 21:16:25;;;;;;;13.20;6.57;;;9.60;99.90;;;;;;10387997;28;20714;-88
2023/12/30 21:21:28;;;;;;;19.97;8.67;;;9.50;99.90;;;;;;10372270;28;20294;-88
2023/12/30 21:26:31;;;;;;;20.37;9.93;;;9.50;99.90;;;;;;10425004;28;20699;-88
2023/12/30 21:31:34;;;;;;;22.77;9.77;;;8.90;99.90;;;;;;10394789;28;20231;-88
2023/12/30 21:36:37;;;;;;;22.70;10.63;;;8.70;99.90;;;;;;10366000;28;20721;-88
2023/12/30 21:41:41;;;;;;;24.27;11.07;;;8.50;99.90;;;;;;10348860;28;20266;-88
2023/12/30 21:46:45;;;;;;;18.03;7.53;;;8.10;99.90;;;;;;10359824;28;20290;-88
2023/12/30 21:51:48;;;;;;;14.20;7.50;;;8.20;99.90;;;;;;10429481;28;20252;-87
2023/12/30 21:56:50;;;;;;;12.20;5.80;;;8.30;99.90;;;;;;10446172;28;20266;-88
2023/12/30 22:01:53;;;;;;;18.40;9.27;;;8.10;99.90;;;;;;10428936;28;20249;-88
2023/12/30 22:06:56;;;;;;;12.43;7.97;;;7.80;99.90;;;;;;10412854;28;20281;-88
2023/12/30 22:11:58;;;;;;;17.33;8.30;;;7.20;99.90;;;;;;10446622;28;20780;-88
2023/12/30 22:17:01;;;;;;;24.37;10.90;;;6.70;99.90;;;;;;10445430;28;20270;-88
2023/12/30 22:22:03;;;;;;;25.27;12.73;;;6.40;99.90;;;;;;10434058;28;20320;-88
2023/12/30 22:27:06;;;;;;;23.07;11.33;;;6.00;99.90;;;;;;10442259;28;20250;-88
2023/12/30 22:32:09;;;;;;;21.13;10.30;;;5.50;99.90;;;;;;10400210;28;20637;-88
2023/12/30 22:37:11;;;;;;;14.53;8.57;;;5.10;99.90;;;;;;10423063;28;20254;-88
2023/12/30 22:42:14;;;;;;;19.40;10.70;;;4.60;99.90;;;;;;10448503;28;20280;-89
2023/12/30 22:47:17;;;;;;;16.23;10.47;;;4.40;99.90;;;;;;10447719;28;20261;-87
2023/12/30 22:52:19;;;;;;;22.30;11.57;;;4.10;99.90;;;;;;10427011;28;20231;-88
2023/12/30 22:57:24;;;;;;;17.67;9.70;;;3.90;99.90;;;;;;10407295;28;20671;-88
2023/12/30 23:02:26;;;;;;;22.70;11.50;;;3.70;99.90;;;;;;10406391;28;20240;-87
2023/12/30 23:07:29;;;;;;;27.90;13.27;;;3.40;99.90;;;;;;10379736;28;20238;-88
2023/12/30 23:12:31;;;;;;;24.27;13.37;;;3.40;99.90;;;;;;10349826;28;20216;-88
2023/12/30 23:17:34;;;;;;;26.90;14.40;;;3.40;99.90;;;;;;10384027;28;20265;-88
2023/12/30 23:22:37;;;;;;;38.10;17.50;;;3.30;99.90;;;;;;10355230;28;20236;-88
2023/12/30 23:27:39;;;;;;;34.10;18.40;;;3.00;99.90;;;;;;10383783;28;20351;-87
2023/12/30 23:32:42;;;;;;;35.07;17.53;;;2.80;99.90;;;;;;10404450;28;20246;-88
2023/12/30 23:37:44;;;;;;;30.73;16.57;;;2.90;99.90;;;;;;10378959;28;20264;-87
2023/12/30 23:42:47;;;;;;;23.07;12.87;;;2.80;99.90;;;;;;10372291;28;20258;-88
2023/12/30 23:47:50;;;;;;;31.07;15.87;;;2.80;99.90;;;;;;10392087;28;20841;-88
2023/12/30 23:52:52;;;;;;;28.30;16.33;;;2.90;99.90;;;;;;10394843;28;20289;-88
2023/12/30 23:57:55;;;;;;;25.83;16.13;;;2.90;99.90;;;;;;10432944;28;20254;-89
